Weather History for Peru, IL

Change the Weather History Date:

Saturday, July 13, 2013

  Actual Average Record
Temperature  
Mean Temperature 72 °F -  
Max Temperature 83 °F 86 °F 97 °F (1981)
Min Temperature 63 °F 64 °F 47 °F (1975)
Cooling Degree Days 8    
Growing Degree Days 22 (Base 50)    
Moisture  
Dew Point 60 °F    
Average Humidity 62    
Maximum Humidity 87    
Minimum Humidity 41    
Precipitation  
Precipitation 0.00 in - - ()
Sea Level Pressure  
Sea Level Pressure 30.13 in    
Wind  
Wind Speed 6 mph (ESE)    
Max Wind Speed 13 mph    
Max Gust Speed 17 mph    
Visibility 10 miles    
Events      
Averages and records for this station are not official NWS values.
T = Trace of Precipitation, MM = Missing Value Source: NWS Daily Summary

Daily Weather History Graph

Daily Weather History Graph

Search for Another Location

Airport:

Trip Planner

Search our weather history database for the weather conditions in past years. The results will help you decide how hot, cold, wet, or windy it might be!

Date:

Astronomy

Jul. 13, 2013 Rise Set
Actual Time 5:34 AM CDT 8:29 PM CDT
Civil Twilight 5:02 AM CDT 9:02 PM CDT
Nautical Twilight 4:20 AM CDT 9:43 PM CDT
Astronomical Twilight 3:31 AM CDT 10:32 PM CDT
Moon 10:55 AM CDT (7/13) 11:05 PM CDT (7/13)
Length of Visible Light 16h 00m
Length of Day
14h 54m
Waxing Crescent, 26% of the Moon is Illuminated
Jul 13
Waxing Crescent
Jul 15
First Quarter
Jul 22
Full
Jul 29
Last Quarter
Aug 6
New

Hourly Weather History & Observations

Time (CDT) Temp. Heat Index Dew Point Humidity Pressure Visibility Wind Dir Wind Speed Gust Speed Precip Events Conditions
12:15 AM 66.6 °F - 55.6 °F 68% 30.10 in 10.0 mi ESE 4.6 mph - N/A   Clear
12:35 AM 68.0 °F - 57.4 °F 69% 30.09 in 10.0 mi ESE 5.8 mph - N/A   Clear
12:55 AM 68.0 °F - 59.0 °F 73% 30.10 in 10.0 mi ESE 8.1 mph - N/A   Clear
1:15 AM 67.5 °F - 59.4 °F 75% 30.10 in 10.0 mi ESE 9.2 mph - N/A   Clear
1:35 AM 67.3 °F - 59.9 °F 77% 30.11 in 10.0 mi ESE 6.9 mph - N/A   Clear
1:55 AM 66.9 °F - 59.9 °F 78% 30.11 in 10.0 mi ESE 8.1 mph - N/A   Clear
2:15 AM 66.6 °F - 59.9 °F 79% 30.12 in 10.0 mi ESE 5.8 mph - N/A   Clear
2:35 AM 66.2 °F - 59.5 °F 79% 30.12 in 10.0 mi ESE 6.9 mph - N/A   Clear
2:55 AM 66.2 °F - 59.5 °F 79% 30.12 in 10.0 mi ESE 5.8 mph - N/A   Clear
3:15 AM 65.8 °F - 59.4 °F 80% 30.13 in 10.0 mi SE 6.9 mph - N/A   Clear
3:35 AM 65.7 °F - 59.4 °F 80% 30.13 in 10.0 mi SE 6.9 mph - N/A   Clear
3:55 AM 65.3 °F - 59.4 °F 81% 30.11 in 10.0 mi SE 5.8 mph - N/A   Clear
4:15 AM 65.3 °F - 59.2 °F 81% 30.12 in 10.0 mi SE 5.8 mph - N/A   Clear
4:35 AM 63.5 °F - 58.6 °F 84% 30.12 in 10.0 mi SE 3.5 mph - N/A   Clear
4:55 AM 63.3 °F - 59.0 °F 86% 30.13 in 10.0 mi East 4.6 mph - N/A   Clear
5:15 AM 64.0 °F - 59.4 °F 85% 30.13 in 10.0 mi ESE 5.8 mph - N/A   Clear
5:35 AM 63.7 °F - 59.0 °F 85% 30.12 in 10.0 mi ESE 4.6 mph - N/A   Clear
5:55 AM 63.0 °F - 58.6 °F 86% 30.12 in 10.0 mi Calm Calm - N/A   Clear
6:15 AM 63.1 °F - 59.4 °F 87% 30.14 in 10.0 mi Calm Calm - N/A   Clear
6:35 AM 63.5 °F - 59.7 °F 87% 30.14 in 7.0 mi Calm Calm - N/A   Clear
6:55 AM 65.5 °F - 61.0 °F 85% 30.15 in 10.0 mi Calm Calm - N/A   Clear
7:15 AM 66.7 °F - 61.0 °F 82% 30.16 in 10.0 mi Calm Calm - N/A   Clear
7:35 AM 68.2 °F - 62.1 °F 81% 30.15 in 10.0 mi Calm Calm - N/A   Clear
7:55 AM 70.7 °F - 61.2 °F 72% 30.14 in 10.0 mi ESE 6.9 mph - N/A   Clear
8:15 AM 72.0 °F - 60.6 °F 67% 30.15 in 10.0 mi ESE 5.8 mph - N/A   Clear
8:35 AM 72.5 °F - 60.8 °F 67% 30.15 in 10.0 mi SE 4.6 mph - N/A   Clear
8:55 AM 72.9 °F - 61.0 °F 66% 30.16 in 10.0 mi Calm Calm - N/A   Clear
9:15 AM 73.8 °F - 59.9 °F 62% 30.16 in 10.0 mi SE 3.5 mph - N/A   Clear
9:35 AM 75.2 °F - 58.6 °F 56% 30.16 in 10.0 mi Calm Calm - N/A   Clear
9:55 AM 76.3 °F - 59.2 °F 55% 30.16 in 10.0 mi Calm Calm - N/A   Clear
10:15 AM 77.0 °F - 59.0 °F 54% 30.16 in 10.0 mi SE 4.6 mph - N/A   Clear
10:35 AM 77.9 °F - 57.4 °F 49% 30.15 in 10.0 mi Calm Calm - N/A   Clear
10:55 AM 77.5 °F - 58.3 °F 51% 30.16 in 10.0 mi Calm Calm - N/A   Clear
11:15 AM 78.8 °F - 57.7 °F 48% 30.15 in 10.0 mi ENE 6.9 mph - N/A   Clear
11:35 AM 79.5 °F - 56.5 °F 45% 30.14 in 10.0 mi East 6.9 mph - N/A   Clear
11:55 AM 79.3 °F - 59.0 °F 50% 30.14 in 10.0 mi ESE 6.9 mph - N/A   Clear
12:15 PM 80.2 °F 80.6 °F 57.6 °F 46% 30.14 in 10.0 mi ESE 9.2 mph - N/A   Clear
12:35 PM 80.2 °F 80.9 °F 59.7 °F 49% 30.13 in 10.0 mi Calm Calm - N/A   Clear
12:55 PM 80.6 °F 81.0 °F 58.5 °F 47% 30.13 in 10.0 mi East 9.2 mph - N/A   Clear
1:15 PM 80.2 °F 80.9 °F 59.7 °F 49% 30.14 in 10.0 mi East 4.6 mph - N/A   Scattered Clouds
1:35 PM 81.0 °F 81.6 °F 59.9 °F 49% 30.13 in 10.0 mi East 11.5 mph - N/A   Scattered Clouds
1:55 PM 81.5 °F 81.6 °F 58.5 °F 45% 30.13 in 10.0 mi East 9.2 mph - N/A   Clear
2:15 PM 81.7 °F 81.8 °F 58.5 °F 45% 30.13 in 10.0 mi East 11.5 mph - N/A   Clear
2:35 PM 82.4 °F 82.0 °F 56.8 °F 42% 30.12 in 10.0 mi ESE 12.7 mph - N/A   Clear
2:55 PM 82.2 °F 82.0 °F 57.7 °F 43% 30.12 in 10.0 mi East 9.2 mph - N/A   Clear
3:15 PM 82.0 °F 81.8 °F 57.4 °F 43% 30.12 in 10.0 mi East 12.7 mph 17.3 mph N/A   Clear
3:35 PM 82.8 °F 82.4 °F 57.7 °F 42% 30.12 in 10.0 mi East 3.5 mph - N/A   Clear
3:55 PM 82.9 °F 82.7 °F 58.1 °F 43% 30.11 in 10.0 mi ENE 11.5 mph - N/A   Scattered Clouds
4:15 PM 82.4 °F 82.2 °F 57.7 °F 43% 30.11 in 10.0 mi East 9.2 mph - N/A   Scattered Clouds
4:35 PM 82.8 °F 82.2 °F 57.0 °F 41% 30.11 in 10.0 mi Calm Calm - N/A   Scattered Clouds
4:55 PM 82.9 °F 82.7 °F 58.5 °F 43% 30.11 in 10.0 mi East 8.1 mph - N/A   Scattered Clouds
5:15 PM 82.6 °F 82.5 °F 58.8 °F 44% 30.10 in 10.0 mi ESE 10.4 mph - N/A   Clear
5:35 PM 82.9 °F 82.7 °F 58.3 °F 43% 30.10 in 10.0 mi ESE 8.1 mph - N/A   Clear
5:55 PM 82.8 °F 82.5 °F 58.3 °F 43% 30.10 in 10.0 mi ESE 5.8 mph - N/A   Clear
6:15 PM 82.6 °F 82.6 °F 59.0 °F 45% 30.10 in 10.0 mi East 8.1 mph - N/A   Clear
6:35 PM 82.0 °F 82.1 °F 59.0 °F 45% 30.10 in 10.0 mi East 10.4 mph - N/A   Clear
6:55 PM 81.7 °F 81.9 °F 59.0 °F 46% 30.10 in 10.0 mi East 10.4 mph - N/A   Clear
7:15 PM 81.0 °F 81.3 °F 59.2 °F 47% 30.10 in 10.0 mi ESE 5.8 mph - N/A   Clear
7:35 PM 80.6 °F 81.1 °F 59.4 °F 48% 30.09 in 10.0 mi East 8.1 mph - N/A   Clear
7:55 PM 80.2 °F 81.1 °F 60.8 °F 51% 30.10 in 10.0 mi East 5.8 mph - N/A   Clear
8:15 PM 77.9 °F - 61.2 °F 56% 30.11 in 10.0 mi East 5.8 mph - N/A   Clear
8:35 PM 75.9 °F - 61.7 °F 61% 30.11 in 10.0 mi East 5.8 mph - N/A   Clear
8:55 PM 75.2 °F - 61.9 °F 63% 30.11 in 10.0 mi East 5.8 mph - N/A   Clear
9:15 PM 75.4 °F - 62.1 °F 63% 30.13 in 10.0 mi East 4.6 mph - N/A   Clear
9:35 PM 75.2 °F - 62.8 °F 65% 30.13 in 10.0 mi East 6.9 mph - N/A   Clear
9:55 PM 75.2 °F - 63.0 °F 66% 30.13 in 10.0 mi ESE 8.1 mph - N/A   Clear
10:15 PM 75.2 °F - 62.8 °F 65% 30.13 in 10.0 mi ESE 6.9 mph - N/A   Clear
10:35 PM 75.2 °F - 63.5 °F 67% 30.14 in 10.0 mi ESE 5.8 mph - N/A   Clear
10:55 PM 73.8 °F - 63.3 °F 70% 30.14 in 10.0 mi East 5.8 mph - N/A   Clear
11:15 PM 72.9 °F - 63.0 °F 71% 30.14 in 10.0 mi ESE 6.9 mph - N/A   Clear
11:35 PM 72.9 °F - 63.5 °F 72% 30.14 in 10.0 mi East 5.8 mph - N/A   Clear
11:55 PM 71.6 °F - 63.1 °F 75% 30.14 in 10.0 mi East 5.8 mph - N/A   Clear